createdAt,value
2023-01-21T00:01:09.552Z,12.27
2023-01-21T00:03:36.979Z,12.57
2023-01-21T00:06:04.629Z,12.90
2023-01-21T00:08:31.989Z,12.83
2023-01-21T00:11:05.501Z,13.10
2023-01-21T00:13:37.246Z,12.67
2023-01-21T00:16:05.514Z,12.33
2023-01-21T00:18:33.638Z,12.47
2023-01-21T00:21:01.279Z,11.90
2023-01-21T00:23:28.415Z,12.57
2023-01-21T00:26:00.591Z,11.80
2023-01-21T00:28:32.442Z,11.43
2023-01-21T00:31:01.488Z,10.90
2023-01-21T00:33:29.402Z,11.00
2023-01-21T00:36:08.150Z,11.33
2023-01-21T00:38:35.836Z,10.70
2023-01-21T00:41:05.593Z,10.93
2023-01-21T00:43:33.054Z,11.17
2023-01-21T00:46:00.236Z,9.93
2023-01-21T00:48:28.710Z,10.63
2023-01-21T00:50:59.114Z,9.43
2023-01-21T00:53:31.268Z,10.17
2023-01-21T00:56:07.041Z,9.73
2023-01-21T00:58:35.283Z,9.20
2023-01-21T01:01:06.891Z,9.43
2023-01-21T01:03:35.780Z,8.90
2023-01-21T01:06:11.010Z,8.10
2023-01-21T01:08:38.303Z,9.40
2023-01-21T01:11:05.563Z,8.80
2023-01-21T01:13:34.609Z,9.40
2023-01-21T01:16:02.737Z,9.03
2023-01-21T01:18:33.209Z,8.90
2023-01-21T01:21:01.033Z,9.03
2023-01-21T01:23:28.523Z,8.73
2023-01-21T01:26:01.745Z,8.53
2023-01-21T01:28:30.304Z,8.90
2023-01-21T01:30:58.457Z,9.20
2023-01-21T01:33:26.563Z,9.63
2023-01-21T01:35:53.985Z,9.20
2023-01-21T01:38:23.163Z,9.20
2023-01-21T01:40:52.762Z,9.50
2023-01-21T01:43:23.780Z,9.50
2023-01-21T01:45:51.308Z,10.20
2023-01-21T01:48:31.875Z,11.00
2023-01-21T01:51:03.701Z,10.43
2023-01-21T01:53:32.063Z,11.53
2023-01-21T01:55:59.829Z,12.43
2023-01-21T01:58:28.562Z,13.57
2023-01-21T02:00:55.591Z,12.10
2023-01-21T02:03:41.891Z,12.37
2023-01-21T02:06:08.903Z,11.93
2023-01-21T02:08:36.500Z,12.63
2023-01-21T02:11:11.040Z,11.97
2023-01-21T02:13:38.158Z,12.37
2023-01-21T02:16:15.925Z,12.90
2023-01-21T02:18:46.109Z,12.27
2023-01-21T02:21:16.123Z,11.33
2023-01-21T02:23:49.186Z,11.83
2023-01-21T02:26:19.049Z,11.70
2023-01-21T02:29:05.182Z,11.77
2023-01-21T02:31:47.264Z,12.00
2023-01-21T02:34:43.088Z,12.53
2023-01-21T02:37:26.994Z,12.07
2023-01-21T02:40:18.489Z,10.80
2023-01-21T02:43:01.972Z,10.63
2023-01-21T02:45:35.125Z,10.40
2023-01-21T02:48:16.359Z,10.87
2023-01-21T02:50:46.940Z,10.90
2023-01-21T02:53:24.732Z,11.30
2023-01-21T02:55:52.345Z,10.73
2023-01-21T02:58:28.543Z,9.93
2023-01-21T03:01:22.049Z,10.50
2023-01-21T03:03:49.276Z,10.83
2023-01-21T03:06:52.390Z,10.47
2023-01-21T03:09:24.201Z,10.07
2023-01-21T03:12:07.043Z,10.30
2023-01-21T03:15:02.879Z,10.57
2023-01-21T03:17:52.849Z,9.87
2023-01-21T03:20:45.159Z,10.33
2023-01-21T03:23:35.506Z,10.10
2023-01-21T03:26:04.127Z,10.20
2023-01-21T03:28:34.026Z,11.20
2023-01-21T03:31:06.053Z,10.67
2023-01-21T03:33:37.734Z,11.10
2023-01-21T03:36:14.590Z,10.67
2023-01-21T03:38:48.065Z,10.70
2023-01-21T03:41:27.349Z,10.40
2023-01-21T03:43:54.549Z,10.30
2023-01-21T03:46:35.415Z,10.33
2023-01-21T03:49:20.607Z,10.17
2023-01-21T03:51:55.641Z,10.00
2023-01-21T03:54:23.198Z,10.63
2023-01-21T03:56:50.338Z,10.00
2023-01-21T03:59:17.481Z,10.40
2023-01-21T04:01:44.501Z,9.00
2023-01-21T04:04:12.149Z,9.10
2023-01-21T04:06:39.332Z,9.43
2023-01-21T04:09:07.453Z,9.00
2023-01-21T04:11:34.672Z,8.90
2023-01-21T04:14:01.827Z,9.07
2023-01-21T04:16:29.128Z,8.80
2023-01-21T04:18:56.165Z,8.20
2023-01-21T04:21:23.400Z,8.60
2023-01-21T04:23:50.458Z,7.80
2023-01-21T04:26:17.561Z,8.13
2023-01-21T04:28:44.676Z,7.40
2023-01-21T04:31:11.903Z,7.40
2023-01-21T04:33:39.148Z,6.87
2023-01-21T04:36:06.285Z,7.33
2023-01-21T04:38:33.278Z,7.27
2023-01-21T04:41:00.379Z,6.93
2023-01-21T04:43:27.415Z,6.90
2023-01-21T04:45:54.409Z,7.00
2023-01-21T04:48:21.713Z,6.40
2023-01-21T04:50:48.824Z,6.30
2023-01-21T04:53:15.922Z,7.03
2023-01-21T04:55:43.101Z,5.40
2023-01-21T04:58:10.360Z,5.77
2023-01-21T05:00:37.585Z,4.30
2023-01-21T05:03:04.773Z,4.80
2023-01-21T05:05:31.821Z,4.20
2023-01-21T05:07:58.864Z,4.70
2023-01-21T05:10:26.007Z,3.97
2023-01-21T05:12:53.268Z,4.33
2023-01-21T05:15:20.568Z,3.70
2023-01-21T05:17:47.566Z,3.70
2023-01-21T05:20:14.873Z,4.00
2023-01-21T05:22:42.130Z,4.10
2023-01-21T05:25:09.278Z,4.00
2023-01-21T05:27:36.842Z,3.57
2023-01-21T05:30:04.141Z,4.20
2023-01-21T05:32:31.245Z,3.70
2023-01-21T05:34:58.458Z,4.03
2023-01-21T05:37:25.441Z,3.50
2023-01-21T05:39:52.477Z,3.90
2023-01-21T05:42:19.590Z,4.10
2023-01-21T05:44:46.507Z,3.97
2023-01-21T05:47:13.597Z,5.17
2023-01-21T05:49:40.728Z,9.20
2023-01-21T05:52:07.657Z,5.30
2023-01-21T05:54:34.635Z,3.90
2023-01-21T05:57:01.619Z,3.97
2023-01-21T05:59:28.718Z,4.00
2023-01-21T06:01:55.857Z,4.13
2023-01-21T06:04:28.424Z,4.23
2023-01-21T06:06:55.873Z,4.10
2023-01-21T06:09:22.920Z,3.90
2023-01-21T06:11:49.958Z,3.77
2023-01-21T06:14:17.012Z,3.97
2023-01-21T06:16:44.150Z,13.87
2023-01-21T06:19:11.227Z,5.30
2023-01-21T06:21:38.340Z,4.60
2023-01-21T06:24:05.913Z,3.70
2023-01-21T06:26:34.247Z,4.00
2023-01-21T06:29:01.379Z,4.30
2023-01-21T06:31:28.426Z,4.50
2023-01-21T06:33:55.579Z,4.20
2023-01-21T06:36:22.701Z,3.87
2023-01-21T06:38:49.785Z,4.00
2023-01-21T06:41:17.134Z,3.90
2023-01-21T06:43:44.181Z,4.17
2023-01-21T06:46:11.430Z,3.90
2023-01-21T06:48:38.517Z,4.23
2023-01-21T06:51:05.866Z,4.60
2023-01-21T06:53:32.912Z,6.87
2023-01-21T06:56:00.130Z,5.33
2023-01-21T06:58:27.370Z,4.70
2023-01-21T07:00:57.215Z,5.00
2023-01-21T07:03:24.400Z,5.10
2023-01-21T07:05:51.359Z,4.97
2023-01-21T07:08:18.472Z,5.77
2023-01-21T07:10:47.648Z,5.70
2023-01-21T07:13:15.154Z,5.50
2023-01-21T07:15:42.389Z,6.20
2023-01-21T07:18:09.353Z,5.97
2023-01-21T07:20:37.690Z,6.80
2023-01-21T07:23:05.497Z,7.07
2023-01-21T07:25:32.624Z,6.10
2023-01-21T07:27:59.705Z,6.30
2023-01-21T07:30:26.761Z,6.87
2023-01-21T07:32:53.818Z,7.67
2023-01-21T07:35:20.751Z,6.33
2023-01-21T07:37:47.904Z,5.93
2023-01-21T07:40:15.251Z,6.53
2023-01-21T07:42:42.223Z,6.20
2023-01-21T07:45:09.568Z,6.47
2023-01-21T07:47:36.578Z,6.53
2023-01-21T07:50:08.639Z,6.80
2023-01-21T07:52:36.333Z,6.50
2023-01-21T07:55:03.759Z,6.80
2023-01-21T07:57:30.720Z,6.70
2023-01-21T07:59:57.807Z,7.03
2023-01-21T08:02:25.581Z,6.93
2023-01-21T08:04:52.654Z,7.00
2023-01-21T08:07:19.649Z,7.40
2023-01-21T08:09:46.689Z,7.70
2023-01-21T08:12:13.725Z,7.13
2023-01-21T08:14:40.696Z,7.07
2023-01-21T08:17:07.711Z,8.03
2023-01-21T08:19:34.665Z,7.60
2023-01-21T08:22:01.696Z,7.80
2023-01-21T08:24:28.735Z,7.17
2023-01-21T08:26:59.771Z,7.77
2023-01-21T08:29:27.646Z,7.77
2023-01-21T08:31:54.899Z,8.07
2023-01-21T08:34:22.078Z,9.50
2023-01-21T08:36:49.440Z,8.67
2023-01-21T08:39:16.748Z,8.40
2023-01-21T08:41:44.803Z,8.13
2023-01-21T08:44:12.183Z,7.53
2023-01-21T08:46:39.207Z,8.53
2023-01-21T08:49:06.895Z,8.13
2023-01-21T08:51:34.479Z,8.37
2023-01-21T08:54:01.624Z,9.47
2023-01-21T08:56:28.769Z,9.03
2023-01-21T08:58:57.497Z,8.73
2023-01-21T09:01:25.969Z,8.77
2023-01-21T09:04:00.978Z,8.93
2023-01-21T09:06:29.748Z,8.03
2023-01-21T09:08:57.005Z,8.40
2023-01-21T09:11:25.020Z,9.00
2023-01-21T09:13:52.101Z,9.07
2023-01-21T09:16:22.249Z,8.70
2023-01-21T09:18:49.544Z,9.20
2023-01-21T09:21:17.116Z,10.97
2023-01-21T09:23:44.519Z,10.00
2023-01-21T09:26:17.447Z,10.03
2023-01-21T09:28:47.831Z,10.17
2023-01-21T09:31:18.389Z,10.17
2023-01-21T09:33:47.428Z,11.13
2023-01-21T09:36:20.875Z,12.70
2023-01-21T09:38:49.159Z,13.50
2023-01-21T09:41:37.244Z,14.70
2023-01-21T09:44:44.772Z,16.00
2023-01-21T09:47:20.401Z,17.60
2023-01-21T09:49:50.668Z,18.23
2023-01-21T09:52:31.402Z,18.43
2023-01-21T09:54:59.034Z,19.10
2023-01-21T09:57:53.519Z,18.67
2023-01-21T10:00:38.539Z,18.30
2023-01-21T10:03:27.049Z,18.77
2023-01-21T10:06:13.413Z,18.37
2023-01-21T10:08:46.436Z,18.43
2023-01-21T10:11:57.624Z,18.13
2023-01-21T10:14:24.741Z,20.07
2023-01-21T10:17:16.798Z,20.83
2023-01-21T10:19:56.057Z,21.27
2023-01-21T10:22:27.701Z,21.23
2023-01-21T10:25:18.659Z,21.87
2023-01-21T10:27:46.478Z,20.30
2023-01-21T10:30:34.201Z,19.40
2023-01-21T10:33:01.575Z,18.77
2023-01-21T10:35:39.453Z,20.07
2023-01-21T10:38:32.415Z,19.63
2023-01-21T10:41:26.605Z,20.17
2023-01-21T10:44:02.888Z,19.67
2023-01-21T10:46:45.009Z,20.07
2023-01-21T10:49:21.188Z,20.50
2023-01-21T10:52:15.589Z,19.47
2023-01-21T10:54:57.522Z,17.60
2023-01-21T10:57:43.435Z,19.70
2023-01-21T11:00:31.671Z,19.10
2023-01-21T11:03:08.802Z,19.40
2023-01-21T11:05:36.148Z,19.40
2023-01-21T11:08:03.984Z,19.47
2023-01-21T11:10:31.051Z,18.33
2023-01-21T11:12:58.372Z,19.17
2023-01-21T11:15:26.294Z,17.60
2023-01-21T11:17:56.503Z,20.07
2023-01-21T11:20:41.155Z,19.20
2023-01-21T11:23:26.864Z,19.10
2023-01-21T11:26:02.058Z,20.00
2023-01-21T11:28:30.709Z,18.63
2023-01-21T11:31:12.541Z,19.73
2023-01-21T11:33:41.305Z,17.87
2023-01-21T11:36:19.906Z,19.17
2023-01-21T11:39:00.109Z,19.37
2023-01-21T11:41:27.859Z,20.87
2023-01-21T11:44:07.049Z,20.87
2023-01-21T11:46:41.298Z,20.00
2023-01-21T11:49:08.249Z,20.30
2023-01-21T11:51:36.749Z,19.03
2023-01-21T11:54:24.197Z,19.13
2023-01-21T11:56:56.009Z,21.07
2023-01-21T11:59:27.741Z,18.70
2023-01-21T12:02:00.141Z,19.47
2023-01-21T12:04:27.465Z,19.23
2023-01-21T12:06:58.682Z,18.43
2023-01-21T12:09:27.516Z,18.83
2023-01-21T12:12:35.690Z,19.13
2023-01-21T12:15:29.137Z,19.93
2023-01-21T12:18:04.187Z,19.37
2023-01-21T12:20:49.142Z,19.87
2023-01-21T12:23:41.410Z,21.30
2023-01-21T12:26:32.828Z,20.10
2023-01-21T12:29:20.900Z,21.70
2023-01-21T12:31:59.280Z,22.37
2023-01-21T12:34:38.753Z,22.53
2023-01-21T12:37:14.039Z,20.13
2023-01-21T12:39:43.610Z,21.57
2023-01-21T12:42:29.440Z,20.20
2023-01-21T12:45:21.523Z,20.90
2023-01-21T12:48:10.411Z,20.53
2023-01-21T12:50:45.714Z,20.00
2023-01-21T12:53:39.331Z,20.50
2023-01-21T12:56:39.023Z,21.87
2023-01-21T12:59:32.719Z,20.77
2023-01-21T13:02:18.206Z,21.27
2023-01-21T13:04:48.256Z,22.00
2023-01-21T13:07:47.396Z,21.10
2023-01-21T13:10:22.504Z,20.67
2023-01-21T13:13:00.170Z,22.43
2023-01-21T13:15:39.458Z,21.97
2023-01-21T13:18:16.397Z,22.17
2023-01-21T13:20:52.875Z,21.13
2023-01-21T13:23:33.035Z,21.83
2023-01-21T13:26:15.182Z,22.10
2023-01-21T13:29:05.114Z,21.40
2023-01-21T13:32:01.594Z,21.40
2023-01-21T13:34:41.247Z,20.03
2023-01-21T13:37:32.739Z,20.50
2023-01-21T13:40:14.786Z,20.87
2023-01-21T13:42:55.902Z,21.37
2023-01-21T13:45:54.697Z,19.90
2023-01-21T13:48:46.687Z,19.27
2023-01-21T13:51:19.151Z,19.20
2023-01-21T13:54:03.892Z,20.43
2023-01-21T13:56:58.931Z,20.30
2023-01-21T13:59:30.667Z,20.37
2023-01-21T14:02:03.707Z,19.97
2023-01-21T14:04:39.162Z,22.97
2023-01-21T14:07:21.416Z,20.50
2023-01-21T14:10:07.356Z,20.60
2023-01-21T14:12:59.222Z,20.20
2023-01-21T14:15:39.549Z,20.47
2023-01-21T14:18:40.713Z,22.17
2023-01-21T14:21:21.002Z,21.63
2023-01-21T14:24:06.326Z,24.20
2023-01-21T14:27:00.759Z,21.23
2023-01-21T14:29:36.956Z,22.43
2023-01-21T14:32:33.592Z,23.63
2023-01-21T14:35:03.771Z,22.80
2023-01-21T14:37:53.752Z,21.80
2023-01-21T14:40:33.093Z,22.73
2023-01-21T14:43:00.955Z,23.53
2023-01-21T14:46:25.001Z,24.70
2023-01-21T14:49:38.195Z,23.10
2023-01-21T14:52:05.825Z,23.23
2023-01-21T14:54:33.179Z,24.67
2023-01-21T14:57:13.835Z,26.23
2023-01-21T14:59:46.618Z,25.63
2023-01-21T15:02:37.378Z,27.30
2023-01-21T15:05:10.782Z,27.23
2023-01-21T15:07:43.463Z,26.73
2023-01-21T15:10:21.607Z,25.47
2023-01-21T15:12:57.899Z,25.40
2023-01-21T15:15:39.995Z,27.13
2023-01-21T15:18:09.773Z,25.63
2023-01-21T15:20:42.874Z,25.57
2023-01-21T15:23:31.421Z,26.07
2023-01-21T15:26:07.797Z,25.60
2023-01-21T15:28:56.599Z,24.60
2023-01-21T15:31:23.931Z,24.97
2023-01-21T15:34:00.877Z,24.87
2023-01-21T15:36:34.801Z,24.77
2023-01-21T15:39:23.279Z,25.20
2023-01-21T15:42:05.414Z,26.67
2023-01-21T15:44:58.582Z,27.07
2023-01-21T15:47:41.110Z,26.87
2023-01-21T15:50:26.829Z,27.63
2023-01-21T15:53:05.339Z,29.53
2023-01-21T15:55:41.996Z,28.90
2023-01-21T15:58:47.488Z,31.00
2023-01-21T16:01:32.327Z,29.60
2023-01-21T16:04:11.414Z,29.03
2023-01-21T16:07:06.617Z,28.90
2023-01-21T16:09:53.924Z,27.60
2023-01-21T16:12:47.012Z,25.33
2023-01-21T16:15:38.256Z,28.33
2023-01-21T16:18:29.867Z,30.43
2023-01-21T16:20:59.555Z,30.90
2023-01-21T16:23:29.348Z,31.80
2023-01-21T16:25:56.504Z,30.80
2023-01-21T16:28:23.801Z,30.50
2023-01-21T16:30:59.262Z,29.67
2023-01-21T16:33:26.443Z,28.97
2023-01-21T16:35:56.766Z,26.87
2023-01-21T16:38:31.465Z,24.90
2023-01-21T16:41:07.794Z,26.23
2023-01-21T16:43:37.957Z,25.03
2023-01-21T16:46:24.735Z,28.07
2023-01-21T16:48:54.818Z,24.83
2023-01-21T16:51:25.299Z,24.47
2023-01-21T16:53:53.922Z,24.17
2023-01-21T16:56:26.423Z,25.73
2023-01-21T16:58:55.906Z,26.97
2023-01-21T17:01:26.532Z,27.00
2023-01-21T17:03:53.739Z,31.23
2023-01-21T17:06:29.318Z,29.60
2023-01-21T17:09:07.207Z,35.57
2023-01-21T17:11:36.861Z,31.33
2023-01-21T17:14:10.431Z,31.20
2023-01-21T17:16:40.459Z,30.40
2023-01-21T17:19:23.559Z,30.53
2023-01-21T17:21:55.610Z,28.90
2023-01-21T17:24:34.226Z,29.17
2023-01-21T17:27:06.982Z,29.87
2023-01-21T17:29:34.779Z,29.60
2023-01-21T17:32:08.086Z,27.83
2023-01-21T17:34:37.628Z,28.80
2023-01-21T17:37:41.399Z,27.80
2023-01-21T17:41:01.059Z,28.20
2023-01-21T17:43:28.239Z,29.33
2023-01-21T17:45:57.104Z,29.37
2023-01-21T17:48:29.075Z,31.00
2023-01-21T17:51:13.777Z,33.47
2023-01-21T17:53:46.249Z,32.03
2023-01-21T17:56:13.570Z,33.83
2023-01-21T17:58:50.287Z,33.63
2023-01-21T18:01:19.306Z,32.93
2023-01-21T18:03:46.345Z,35.87
2023-01-21T18:06:22.601Z,34.70
2023-01-21T18:08:50.975Z,36.07
2023-01-21T18:11:18.201Z,34.33
2023-01-21T18:13:45.336Z,33.80
2023-01-21T18:16:12.524Z,33.37
2023-01-21T18:18:40.363Z,32.70
2023-01-21T18:21:17.962Z,30.57
2023-01-21T18:23:45.161Z,34.73
2023-01-21T18:26:30.059Z,33.93
2023-01-21T18:28:57.228Z,34.27
2023-01-21T18:31:24.660Z,33.70
2023-01-21T18:33:51.875Z,34.30
2023-01-21T18:36:18.848Z,34.43
2023-01-21T18:38:46.029Z,34.07
2023-01-21T18:41:13.600Z,33.97
2023-01-21T18:43:40.599Z,34.23
2023-01-21T18:46:16.382Z,34.13
2023-01-21T18:48:43.689Z,34.27
2023-01-21T18:51:12.317Z,35.43
2023-01-21T18:53:39.430Z,34.60
2023-01-21T18:56:11.953Z,33.93
2023-01-21T18:58:39.110Z,34.10
2023-01-21T19:01:21.345Z,33.73
2023-01-21T19:03:49.394Z,33.33
2023-01-21T19:06:17.462Z,33.67
2023-01-21T19:08:45.297Z,36.37
2023-01-21T19:11:14.038Z,35.83
2023-01-21T19:13:41.072Z,35.77
2023-01-21T19:16:19.121Z,37.00
2023-01-21T19:18:46.425Z,35.63
2023-01-21T19:21:13.501Z,34.13
2023-01-21T19:23:40.654Z,34.97
2023-01-21T19:26:09.344Z,33.67
2023-01-21T19:28:37.482Z,32.77
2023-01-21T19:31:04.893Z,33.73
2023-01-21T19:33:32.003Z,33.93
2023-01-21T19:36:16.623Z,36.13
2023-01-21T19:38:50.527Z,38.53
2023-01-21T19:41:17.911Z,37.57
2023-01-21T19:43:44.989Z,40.30
2023-01-21T19:46:12.657Z,39.77
2023-01-21T19:48:41.060Z,39.43
2023-01-21T19:51:08.322Z,40.93
2023-01-21T19:53:35.506Z,41.60
2023-01-21T19:56:04.832Z,40.90
2023-01-21T19:58:32.610Z,41.13
2023-01-21T20:00:59.729Z,39.13
2023-01-21T20:03:28.428Z,38.37
2023-01-21T20:06:04.232Z,39.50
2023-01-21T20:08:32.299Z,39.47
2023-01-21T20:10:59.340Z,40.17
2023-01-21T20:13:28.572Z,42.60
2023-01-21T20:15:56.118Z,42.53
2023-01-21T20:18:28.754Z,43.77
2023-01-21T20:20:56.858Z,41.50
2023-01-21T20:23:25.272Z,41.73
2023-01-21T20:25:55.729Z,41.63
2023-01-21T20:28:33.563Z,41.97
2023-01-21T20:31:03.540Z,42.10
2023-01-21T20:33:30.659Z,43.17
2023-01-21T20:35:58.066Z,42.07
2023-01-21T20:38:30.186Z,41.43
2023-01-21T20:41:01.170Z,39.50
2023-01-21T20:43:28.698Z,40.93
2023-01-21T20:46:00.352Z,43.37
2023-01-21T20:48:40.691Z,42.10
2023-01-21T20:51:08.065Z,45.67
2023-01-21T20:53:35.912Z,47.40
2023-01-21T20:56:16.543Z,52.77
2023-01-21T20:58:45.578Z,53.20
2023-01-21T21:03:44.842Z,52.07
2023-01-21T21:06:16.601Z,53.10
2023-01-21T21:08:43.936Z,53.50
2023-01-21T21:11:11.416Z,53.90
2023-01-21T21:13:38.535Z,51.47
2023-01-21T21:16:33.701Z,49.50
2023-01-21T21:19:00.943Z,48.93
2023-01-21T21:21:28.018Z,47.30
2023-01-21T21:23:55.062Z,46.23
2023-01-21T21:26:29.309Z,45.97
2023-01-21T21:28:57.865Z,47.03
2023-01-21T21:31:32.905Z,47.80
2023-01-21T21:34:00.247Z,48.50
2023-01-21T21:36:27.277Z,46.70
2023-01-21T21:38:57.343Z,48.47
2023-01-21T21:41:44.879Z,48.53
2023-01-21T21:44:13.364Z,48.27
2023-01-21T21:47:00.053Z,51.07
2023-01-21T21:49:28.319Z,50.80
2023-01-21T21:51:55.511Z,50.03
2023-01-21T21:54:23.803Z,50.50
2023-01-21T21:56:50.879Z,49.60
2023-01-21T21:59:18.196Z,50.00
2023-01-21T22:01:45.489Z,50.23
2023-01-21T22:04:12.780Z,49.23
2023-01-21T22:06:39.938Z,48.23
2023-01-21T22:09:07.792Z,49.63
2023-01-21T22:11:35.342Z,51.17
2023-01-21T22:14:05.144Z,51.60
2023-01-21T22:16:35.252Z,51.50
2023-01-21T22:19:02.352Z,50.90
2023-01-21T22:21:34.506Z,50.60
2023-01-21T22:24:02.951Z,49.83
2023-01-21T22:26:30.407Z,46.63
2023-01-21T22:28:57.692Z,46.90
2023-01-21T22:31:27.606Z,42.70
2023-01-21T22:33:55.535Z,44.93
2023-01-21T22:36:25.241Z,44.40
2023-01-21T22:38:52.953Z,43.77
2023-01-21T22:41:22.527Z,42.20
2023-01-21T22:43:51.407Z,41.23
2023-01-21T22:46:24.530Z,39.90
2023-01-21T22:48:54.179Z,39.67
2023-01-21T22:51:22.985Z,39.10
2023-01-21T22:53:51.397Z,39.43
2023-01-21T22:56:25.425Z,38.93
2023-01-21T22:58:59.413Z,37.87
2023-01-21T23:01:31.306Z,39.37
2023-01-21T23:03:59.856Z,39.00
2023-01-21T23:06:27.020Z,39.73
2023-01-21T23:08:54.318Z,42.40
2023-01-21T23:11:22.030Z,41.30
2023-01-21T23:13:49.979Z,42.27
2023-01-21T23:16:19.455Z,41.23
2023-01-21T23:18:47.249Z,42.10
2023-01-21T23:21:17.293Z,42.37
2023-01-21T23:23:44.566Z,40.77
2023-01-21T23:26:13.170Z,39.87
2023-01-21T23:28:40.353Z,42.23
2023-01-21T23:31:16.201Z,41.53
2023-01-21T23:33:43.774Z,41.13
2023-01-21T23:36:13.584Z,40.10
2023-01-21T23:38:42.013Z,41.07
2023-01-21T23:41:14.389Z,40.20
2023-01-21T23:43:41.598Z,37.70
2023-01-21T23:46:12.572Z,39.83
2023-01-21T23:48:40.142Z,37.60
2023-01-21T23:51:11.090Z,39.67
2023-01-21T23:53:38.247Z,38.00
2023-01-21T23:56:20.805Z,36.23
2023-01-21T23:58:48.381Z,36.80
